Relevés horaires Chievres (Belgique)


Relevés horaires à Chievres - Dimanche 08 Mai 2016
Heure UTC1 Température [°C] Vent [km/h] Hum. [%] Pres.4 [hPa] Visi. [Km] Nébu. [octa] Préc.5 [mm] Cond.
2m. Res. Ros. Dir.2 Vit. Moy. Raf.3
23:00 16.2 16.2 8.5 E 3.7 5.6 9.3 60 1009.3(0.8/3h) 20 -- -- --
22:00 17.3 17.3 8.6 E 5.6 5.6 9.3 57 1009.2(1.0/3h) 20 -- -- --
21:00 16.7 16.7 9.1 E 3.7 0.0 0.0 61 1009(1.2/3h) 20 -- -- --
20:00 20.0 20.0 8.0 E 7.4 9.3 11.1 46 1008.3(0.8/3h) 20 -- -- --
19:00 21.2 21.2 7.8 ENE 7.4 7.4 11.1 42 1008(0.3/3h) 20 -- -- --
18:00 23.8 23.8 6.0 E 7.4 0.0 0.0 32 1007.6(-0.2/3h) 20 -- 0/0h
--
17:00 25.1 25.1 4.6 E 9.3 13.0 16.7 27 1007.5(-0.6/3h) 19 -- -- --
16:00 25.7 25.7 3.6 E 13.0 13.0 18.5 24 1007.6(-0.7/3h) 20 -- -- --
15:00 26.1 26.1 7.5 E 7.4 0.0 0.0 31 1007.8(-1.0/3h) 20 -- -- --
14:00 24.4 24.4 7.0 E 7.4 9.3 14.8 33 1008.1(-0.9/3h) 20 -- -- --
13:00 24.7 24.7 7.3 ESE 7.4 7.4 13.0 33 1008.3(-0.8/3h) 20 -- -- --
12:00 25.3 25.3 8.2 E 7.4 0.0 0.0 34 1008.8(-0.5/3h) 20 -- 0/0h
--
11:00 24.6 24.6 10.9 E 7.4 7.4 13.0 42 1009.1(-0.3/3h) 20 -- -- --
10:00 23.4 23.4 11.1 E 5.6 5.6 11.1 46 1009.3(-0.2/3h) 20 -- -- --
09:00 23.1 23.1 11.2 SE 3.7 0.0 0.0 47 1009.6(0.2/3h) 20 -- -- --
08:00 20.6 20.6 10.6 ESE 3.7 3.7 7.4 53 1009.6(0.6/3h) 20 -- -- --
07:00 18.7 18.7 10.7 NNO 1.9 3.7 5.6 60 1009.7(0.8/3h) 20 -- -- --
06:00 15.8 15.8 10.9 NNO 1.9 0.0 0.0 73 1009.5(0.7/3h) 17 -- trace/12h
Ciel clair
05:00 13.3 13.3 10.3 NNO 1.9 3.7 3.7 82 1009.2(0.0/3h) 19 -- -- --
04:00 13.8 13.8 10.4 NNO 1.9 1.9 3.7 80 1008.8(-0.2/3h) 19 -- -- --
03:00 13.4 13.4 11.2 NNO 1.9 0.0 0.0 87 1008.7(-0.5/3h) 15 -- -- Ciel clair
02:00 12.8 12.8 10.3 ESE 3.7 3.7 7.4 85 1009.2(-0.1/3h) 18 -- -- --
01:00 12.0 12.0 9.7 E 3.7 3.7 3.7 86 1009.2(0.0/3h) 17 -- -- --
00:00 12.3 12.3 9.8 NNO 1.9 0.0 0.0 85 1009.3(0.1/3h) 20 -- 0/0h
--

1 Coordinated Universal Time. Actuellement il est 18:00 locale et 16:00 UTC.

2 Le vent souffle depuis la direction indiquée vers la direction oposée.

3 Les rafales max. sont disponible 40 min après l'heure du relevé.

4 Pour les stations d'altitude (plus de 600m) le géopotentiel du niveau le plus proche de la pression obligatoire est indiqué.

5 Les stations disposant d'un diffuseur peuvent indiquer "trace". Cela signifie que des précipitations ont touchés le sol mais que la quantité est inférieure à 0.1 mm.

Récapitulatif de la journée
Température [°C] Vent [km/h] Ensoleillement4 [h] Precipitations totale5 [mm] Pression [Hpa]
Min1 Max.2 Moy.3 Max. Min Max.
11.1 26.5 4.3 18.5 0 h 0 min 0 1007.5 1009.7

1 Température minimale relevée entre 18:00 UTC la veille et 18:00 UTC le jour donné.

2 Température maximale relevée entre 06:00 UTC le jour donné et 06:00 UTC le lendemain.

3 Vent moyen de la journée basé sur les relevés horaires.

4 Ensoleillement en heures relevé entre 06:00 UTC la veille et 06:00 UTC le jour donné.

5 Précipitations totales tombées entre 06:00 UTC la jour donné et 06:00 UTC le lendemain.

Graphiques horaires